sensor_id;sensor_type;location;lat;lon;timestamp;P1;durP1;ratioP1;P2;durP2;ratioP2
22754;SDS011;11544;42.020;23.094;2023-04-24T00:01:14;4.93;;;3.92;;
22754;SDS011;11544;42.020;23.094;2023-04-24T00:03:41;5.93;;;4.13;;
22754;SDS011;11544;42.020;23.094;2023-04-24T00:06:08;4.65;;;3.92;;
22754;SDS011;11544;42.020;23.094;2023-04-24T00:08:35;4.15;;;3.72;;
22754;SDS011;11544;42.020;23.094;2023-04-24T00:11:02;7.43;;;4.65;;
22754;SDS011;11544;42.020;23.094;2023-04-24T00:13:30;4.18;;;3.78;;
22754;SDS011;11544;42.020;23.094;2023-04-24T00:15:57;6.25;;;4.30;;
22754;SDS011;11544;42.020;23.094;2023-04-24T00:18:23;5.28;;;4.03;;
22754;SDS011;11544;42.020;23.094;2023-04-24T00:20:50;4.80;;;4.05;;
22754;SDS011;11544;42.020;23.094;2023-04-24T00:23:18;7.38;;;4.38;;
22754;SDS011;11544;42.020;23.094;2023-04-24T00:25:45;9.05;;;4.15;;
22754;SDS011;11544;42.020;23.094;2023-04-24T00:28:12;5.47;;;4.20;;
22754;SDS011;11544;42.020;23.094;2023-04-24T00:30:39;4.18;;;3.78;;
22754;SDS011;11544;42.020;23.094;2023-04-24T00:33:06;5.03;;;3.50;;
22754;SDS011;11544;42.020;23.094;2023-04-24T00:35:34;4.20;;;3.70;;
22754;SDS011;11544;42.020;23.094;2023-04-24T00:38:01;5.78;;;4.22;;
22754;SDS011;11544;42.020;23.094;2023-04-24T00:40:28;5.10;;;4.38;;
22754;SDS011;11544;42.020;23.094;2023-04-24T00:42:55;4.75;;;4.07;;
22754;SDS011;11544;42.020;23.094;2023-04-24T00:45:22;4.25;;;3.83;;
22754;SDS011;11544;42.020;23.094;2023-04-24T00:47:49;4.40;;;4.00;;
22754;SDS011;11544;42.020;23.094;2023-04-24T00:50:18;5.50;;;4.22;;
22754;SDS011;11544;42.020;23.094;2023-04-24T00:52:47;4.60;;;3.85;;
22754;SDS011;11544;42.020;23.094;2023-04-24T00:55:15;5.93;;;4.38;;
22754;SDS011;11544;42.020;23.094;2023-04-24T00:57:42;4.70;;;4.22;;
22754;SDS011;11544;42.020;23.094;2023-04-24T01:00:10;4.65;;;4.10;;
22754;SDS011;11544;42.020;23.094;2023-04-24T01:02:41;8.02;;;3.97;;
22754;SDS011;11544;42.020;23.094;2023-04-24T01:05:12;5.63;;;4.20;;
22754;SDS011;11544;42.020;23.094;2023-04-24T01:07:41;4.20;;;3.80;;
22754;SDS011;11544;42.020;23.094;2023-04-24T01:10:12;5.35;;;4.32;;
22754;SDS011;11544;42.020;23.094;2023-04-24T01:12:43;4.30;;;3.90;;
22754;SDS011;11544;42.020;23.094;2023-04-24T01:15:10;8.00;;;4.38;;
22754;SDS011;11544;42.020;23.094;2023-04-24T01:17:37;4.95;;;4.20;;
22754;SDS011;11544;42.020;23.094;2023-04-24T01:20:05;5.90;;;4.07;;
22754;SDS011;11544;42.020;23.094;2023-04-24T01:22:33;6.68;;;4.28;;
22754;SDS011;11544;42.020;23.094;2023-04-24T01:25:01;6.20;;;4.22;;
22754;SDS011;11544;42.020;23.094;2023-04-24T01:27:28;8.98;;;3.95;;
22754;SDS011;11544;42.020;23.094;2023-04-24T01:29:55;4.97;;;4.07;;
22754;SDS011;11544;42.020;23.094;2023-04-24T01:32:23;4.78;;;4.28;;
22754;SDS011;11544;42.020;23.094;2023-04-24T01:34:51;5.22;;;4.13;;
22754;SDS011;11544;42.020;23.094;2023-04-24T01:37:18;5.57;;;4.60;;
22754;SDS011;11544;42.020;23.094;2023-04-24T01:39:46;8.20;;;5.15;;
22754;SDS011;11544;42.020;23.094;2023-04-24T01:42:13;7.32;;;5.18;;
22754;SDS011;11544;42.020;23.094;2023-04-24T01:44:41;7.75;;;4.65;;
22754;SDS011;11544;42.020;23.094;2023-04-24T01:47:08;5.43;;;4.68;;
22754;SDS011;11544;42.020;23.094;2023-04-24T01:49:36;7.80;;;5.18;;
22754;SDS011;11544;42.020;23.094;2023-04-24T01:52:05;7.07;;;4.57;;
22754;SDS011;11544;42.020;23.094;2023-04-24T01:54:33;5.80;;;5.03;;
22754;SDS011;11544;42.020;23.094;2023-04-24T01:57:00;5.72;;;4.60;;
22754;SDS011;11544;42.020;23.094;2023-04-24T01:59:31;7.53;;;4.10;;
22754;SDS011;11544;42.020;23.094;2023-04-24T02:01:59;5.10;;;4.60;;
22754;SDS011;11544;42.020;23.094;2023-04-24T02:04:26;6.18;;;4.70;;
22754;SDS011;11544;42.020;23.094;2023-04-24T02:06:53;6.35;;;4.90;;
22754;SDS011;11544;42.020;23.094;2023-04-24T02:09:20;6.97;;;4.55;;
22754;SDS011;11544;42.020;23.094;2023-04-24T02:11:47;5.50;;;4.63;;
22754;SDS011;11544;42.020;23.094;2023-04-24T02:14:14;7.18;;;4.72;;
22754;SDS011;11544;42.020;23.094;2023-04-24T02:16:41;5.75;;;4.32;;
22754;SDS011;11544;42.020;23.094;2023-04-24T02:19:08;6.57;;;5.00;;
22754;SDS011;11544;42.020;23.094;2023-04-24T02:21:36;8.48;;;4.43;;
22754;SDS011;11544;42.020;23.094;2023-04-24T02:24:02;6.55;;;4.72;;
22754;SDS011;11544;42.020;23.094;2023-04-24T02:26:29;6.55;;;4.65;;
22754;SDS011;11544;42.020;23.094;2023-04-24T02:28:58;5.03;;;4.53;;
22754;SDS011;11544;42.020;23.094;2023-04-24T02:31:25;5.57;;;4.43;;
22754;SDS011;11544;42.020;23.094;2023-04-24T02:33:52;6.47;;;4.32;;
22754;SDS011;11544;42.020;23.094;2023-04-24T02:36:19;6.40;;;4.30;;
22754;SDS011;11544;42.020;23.094;2023-04-24T02:38:45;7.28;;;4.55;;
22754;SDS011;11544;42.020;23.094;2023-04-24T02:41:12;5.47;;;4.03;;
22754;SDS011;11544;42.020;23.094;2023-04-24T02:43:39;6.05;;;4.28;;
22754;SDS011;11544;42.020;23.094;2023-04-24T02:46:06;4.97;;;4.40;;
22754;SDS011;11544;42.020;23.094;2023-04-24T02:48:33;5.53;;;4.30;;
22754;SDS011;11544;42.020;23.094;2023-04-24T02:51:00;5.38;;;4.15;;
22754;SDS011;11544;42.020;23.094;2023-04-24T02:53:27;8.07;;;4.82;;
22754;SDS011;11544;42.020;23.094;2023-04-24T02:55:56;5.80;;;4.25;;
22754;SDS011;11544;42.020;23.094;2023-04-24T02:58:23;5.20;;;4.53;;
22754;SDS011;11544;42.020;23.094;2023-04-24T03:00:54;10.38;;;5.13;;
22754;SDS011;11544;42.020;23.094;2023-04-24T03:03:22;5.38;;;4.72;;
22754;SDS011;11544;42.020;23.094;2023-04-24T03:05:50;7.22;;;4.82;;
22754;SDS011;11544;42.020;23.094;2023-04-24T03:08:17;6.25;;;5.10;;
22754;SDS011;11544;42.020;23.094;2023-04-24T03:10:44;4.63;;;4.22;;
22754;SDS011;11544;42.020;23.094;2023-04-24T03:13:13;8.10;;;5.70;;
22754;SDS011;11544;42.020;23.094;2023-04-24T03:15:41;9.95;;;5.22;;
22754;SDS011;11544;42.020;23.094;2023-04-24T03:18:08;8.80;;;4.80;;
22754;SDS011;11544;42.020;23.094;2023-04-24T03:20:35;6.63;;;4.88;;
22754;SDS011;11544;42.020;23.094;2023-04-24T03:23:03;7.00;;;5.15;;
22754;SDS011;11544;42.020;23.094;2023-04-24T03:25:30;6.03;;;4.22;;
22754;SDS011;11544;42.020;23.094;2023-04-24T03:27:57;7.22;;;5.15;;
22754;SDS011;11544;42.020;23.094;2023-04-24T03:30:24;8.93;;;4.50;;
22754;SDS011;11544;42.020;23.094;2023-04-24T03:32:51;7.55;;;5.10;;
22754;SDS011;11544;42.020;23.094;2023-04-24T03:35:18;6.75;;;4.78;;
22754;SDS011;11544;42.020;23.094;2023-04-24T03:37:46;5.80;;;5.07;;
22754;SDS011;11544;42.020;23.094;2023-04-24T03:40:12;6.43;;;4.82;;
22754;SDS011;11544;42.020;23.094;2023-04-24T03:42:39;8.98;;;5.28;;
22754;SDS011;11544;42.020;23.094;2023-04-24T03:45:06;6.55;;;5.40;;
22754;SDS011;11544;42.020;23.094;2023-04-24T03:47:34;7.43;;;5.53;;
22754;SDS011;11544;42.020;23.094;2023-04-24T03:50:02;8.63;;;6.63;;
22754;SDS011;11544;42.020;23.094;2023-04-24T03:52:28;7.60;;;5.85;;
22754;SDS011;11544;42.020;23.094;2023-04-24T03:54:55;11.15;;;5.78;;
22754;SDS011;11544;42.020;23.094;2023-04-24T03:57:25;7.55;;;5.75;;
22754;SDS011;11544;42.020;23.094;2023-04-24T03:59:51;6.55;;;5.25;;
22754;SDS011;11544;42.020;23.094;2023-04-24T04:02:19;9.90;;;5.68;;
22754;SDS011;11544;42.020;23.094;2023-04-24T04:04:46;7.63;;;5.30;;
22754;SDS011;11544;42.020;23.094;2023-04-24T04:07:14;6.43;;;5.68;;
22754;SDS011;11544;42.020;23.094;2023-04-24T04:09:40;8.48;;;5.50;;
22754;SDS011;11544;42.020;23.094;2023-04-24T04:12:08;6.07;;;5.30;;
22754;SDS011;11544;42.020;23.094;2023-04-24T04:14:34;5.47;;;4.68;;
22754;SDS011;11544;42.020;23.094;2023-04-24T04:17:01;9.85;;;5.45;;
22754;SDS011;11544;42.020;23.094;2023-04-24T04:19:28;15.20;;;5.97;;
22754;SDS011;11544;42.020;23.094;2023-04-24T04:21:55;7.25;;;5.00;;
22754;SDS011;11544;42.020;23.094;2023-04-24T04:24:22;6.80;;;5.68;;
22754;SDS011;11544;42.020;23.094;2023-04-24T04:26:50;7.32;;;5.68;;
22754;SDS011;11544;42.020;23.094;2023-04-24T04:29:18;9.38;;;5.72;;
22754;SDS011;11544;42.020;23.094;2023-04-24T04:31:45;10.85;;;5.90;;
22754;SDS011;11544;42.020;23.094;2023-04-24T04:34:12;7.55;;;6.10;;
22754;SDS011;11544;42.020;23.094;2023-04-24T04:36:42;10.23;;;6.25;;
22754;SDS011;11544;42.020;23.094;2023-04-24T04:39:10;10.20;;;6.57;;
22754;SDS011;11544;42.020;23.094;2023-04-24T04:41:36;12.23;;;7.63;;
22754;SDS011;11544;42.020;23.094;2023-04-24T04:44:06;13.70;;;7.60;;
22754;SDS011;11544;42.020;23.094;2023-04-24T04:46:35;12.35;;;7.25;;
22754;SDS011;11544;42.020;23.094;2023-04-24T04:49:03;14.88;;;7.47;;
22754;SDS011;11544;42.020;23.094;2023-04-24T04:51:30;12.98;;;7.72;;
22754;SDS011;11544;42.020;23.094;2023-04-24T04:53:57;11.90;;;7.47;;
22754;SDS011;11544;42.020;23.094;2023-04-24T04:56:24;13.82;;;7.43;;
22754;SDS011;11544;42.020;23.094;2023-04-24T04:58:51;11.63;;;8.05;;
22754;SDS011;11544;42.020;23.094;2023-04-24T05:01:18;10.07;;;7.45;;
22754;SDS011;11544;42.020;23.094;2023-04-24T05:03:45;11.98;;;8.07;;
22754;SDS011;11544;42.020;23.094;2023-04-24T05:06:12;16.55;;;7.72;;
22754;SDS011;11544;42.020;23.094;2023-04-24T05:08:39;17.00;;;8.90;;
22754;SDS011;11544;42.020;23.094;2023-04-24T05:11:06;14.20;;;8.60;;
22754;SDS011;11544;42.020;23.094;2023-04-24T05:13:33;16.52;;;7.97;;
22754;SDS011;11544;42.020;23.094;2023-04-24T05:16:06;11.05;;;7.00;;
22754;SDS011;11544;42.020;23.094;2023-04-24T05:18:33;9.50;;;5.95;;
22754;SDS011;11544;42.020;23.094;2023-04-24T05:21:00;13.65;;;6.15;;
22754;SDS011;11544;42.020;23.094;2023-04-24T05:23:27;10.38;;;6.93;;
22754;SDS011;11544;42.020;23.094;2023-04-24T05:25:54;8.18;;;6.05;;
22754;SDS011;11544;42.020;23.094;2023-04-24T05:28:21;15.00;;;6.18;;
22754;SDS011;11544;42.020;23.094;2023-04-24T05:30:48;7.85;;;5.22;;
22754;SDS011;11544;42.020;23.094;2023-04-24T05:33:16;7.97;;;5.15;;
22754;SDS011;11544;42.020;23.094;2023-04-24T05:35:42;7.07;;;5.28;;
22754;SDS011;11544;42.020;23.094;2023-04-24T05:38:13;13.25;;;4.55;;
22754;SDS011;11544;42.020;23.094;2023-04-24T05:40:43;7.25;;;4.57;;
22754;SDS011;11544;42.020;23.094;2023-04-24T05:43:10;9.55;;;5.25;;
22754;SDS011;11544;42.020;23.094;2023-04-24T05:45:38;9.52;;;4.75;;
22754;SDS011;11544;42.020;23.094;2023-04-24T05:48:08;7.05;;;5.00;;
22754;SDS011;11544;42.020;23.094;2023-04-24T05:50:35;7.60;;;4.75;;
22754;SDS011;11544;42.020;23.094;2023-04-24T05:53:02;6.80;;;4.55;;
22754;SDS011;11544;42.020;23.094;2023-04-24T05:55:30;7.57;;;4.38;;
22754;SDS011;11544;42.020;23.094;2023-04-24T05:57:57;7.55;;;4.63;;
22754;SDS011;11544;42.020;23.094;2023-04-24T06:00:25;6.18;;;4.43;;
22754;SDS011;11544;42.020;23.094;2023-04-24T06:02:52;7.78;;;5.20;;
22754;SDS011;11544;42.020;23.094;2023-04-24T06:05:24;9.65;;;4.45;;
22754;SDS011;11544;42.020;23.094;2023-04-24T06:07:51;5.93;;;4.22;;
22754;SDS011;11544;42.020;23.094;2023-04-24T06:10:18;8.02;;;5.05;;
22754;SDS011;11544;42.020;23.094;2023-04-24T06:12:45;9.18;;;5.40;;
22754;SDS011;11544;42.020;23.094;2023-04-24T06:15:12;11.05;;;5.78;;
22754;SDS011;11544;42.020;23.094;2023-04-24T06:17:39;8.35;;;5.30;;
22754;SDS011;11544;42.020;23.094;2023-04-24T06:20:06;9.73;;;5.13;;
22754;SDS011;11544;42.020;23.094;2023-04-24T06:22:37;6.50;;;4.72;;
22754;SDS011;11544;42.020;23.094;2023-04-24T06:25:06;11.10;;;5.50;;
22754;SDS011;11544;42.020;23.094;2023-04-24T06:27:33;9.50;;;4.68;;
22754;SDS011;11544;42.020;23.094;2023-04-24T06:30:02;6.55;;;4.47;;
22754;SDS011;11544;42.020;23.094;2023-04-24T06:32:29;9.15;;;4.43;;
22754;SDS011;11544;42.020;23.094;2023-04-24T06:35:00;8.50;;;4.25;;
22754;SDS011;11544;42.020;23.094;2023-04-24T06:37:27;7.40;;;4.10;;
22754;SDS011;11544;42.020;23.094;2023-04-24T06:39:54;6.35;;;4.28;;
22754;SDS011;11544;42.020;23.094;2023-04-24T06:42:20;6.93;;;4.22;;
22754;SDS011;11544;42.020;23.094;2023-04-24T06:44:48;6.50;;;4.40;;
22754;SDS011;11544;42.020;23.094;2023-04-24T06:47:15;3.88;;;3.53;;
22754;SDS011;11544;42.020;23.094;2023-04-24T06:49:42;6.72;;;4.25;;
22754;SDS011;11544;42.020;23.094;2023-04-24T06:52:09;6.15;;;4.00;;
22754;SDS011;11544;42.020;23.094;2023-04-24T06:54:36;7.20;;;3.72;;
22754;SDS011;11544;42.020;23.094;2023-04-24T06:57:09;8.90;;;3.78;;
22754;SDS011;11544;42.020;23.094;2023-04-24T06:59:37;4.13;;;3.58;;
22754;SDS011;11544;42.020;23.094;2023-04-24T07:02:04;7.20;;;4.38;;
22754;SDS011;11544;42.020;23.094;2023-04-24T07:04:31;8.10;;;3.60;;
22754;SDS011;11544;42.020;23.094;2023-04-24T07:06:58;4.47;;;3.90;;
22754;SDS011;11544;42.020;23.094;2023-04-24T07:09:25;7.53;;;4.85;;
22754;SDS011;11544;42.020;23.094;2023-04-24T07:11:53;4.82;;;3.17;;
22754;SDS011;11544;42.020;23.094;2023-04-24T07:14:20;6.10;;;3.50;;
22754;SDS011;11544;42.020;23.094;2023-04-24T07:16:50;7.10;;;4.00;;
22754;SDS011;11544;42.020;23.094;2023-04-24T07:19:17;7.00;;;4.18;;
22754;SDS011;11544;42.020;23.094;2023-04-24T07:21:44;7.05;;;4.70;;
22754;SDS011;11544;42.020;23.094;2023-04-24T07:24:11;6.22;;;3.70;;
22754;SDS011;11544;42.020;23.094;2023-04-24T07:26:39;4.97;;;4.15;;
22754;SDS011;11544;42.020;23.094;2023-04-24T07:29:06;5.03;;;3.67;;
22754;SDS011;11544;42.020;23.094;2023-04-24T07:31:34;5.38;;;4.22;;
22754;SDS011;11544;42.020;23.094;2023-04-24T07:34:01;7.13;;;4.00;;
22754;SDS011;11544;42.020;23.094;2023-04-24T07:36:28;6.28;;;4.40;;
22754;SDS011;11544;42.020;23.094;2023-04-24T07:38:55;4.95;;;3.90;;
22754;SDS011;11544;42.020;23.094;2023-04-24T07:41:25;5.45;;;3.88;;
22754;SDS011;11544;42.020;23.094;2023-04-24T07:43:52;4.18;;;3.60;;
22754;SDS011;11544;42.020;23.094;2023-04-24T07:46:20;5.65;;;4.50;;
22754;SDS011;11544;42.020;23.094;2023-04-24T07:48:47;9.65;;;5.30;;
22754;SDS011;11544;42.020;23.094;2023-04-24T07:51:30;7.20;;;4.30;;
22754;SDS011;11544;42.020;23.094;2023-04-24T07:54:00;6.57;;;4.50;;
22754;SDS011;11544;42.020;23.094;2023-04-24T07:56:27;8.38;;;3.90;;
22754;SDS011;11544;42.020;23.094;2023-04-24T07:58:57;6.25;;;3.83;;
22754;SDS011;11544;42.020;23.094;2023-04-24T08:01:24;5.47;;;3.97;;
22754;SDS011;11544;42.020;23.094;2023-04-24T08:03:51;4.85;;;3.53;;
22754;SDS011;11544;42.020;23.094;2023-04-24T08:06:21;6.00;;;4.15;;
22754;SDS011;11544;42.020;23.094;2023-04-24T08:08:49;7.85;;;4.05;;
22754;SDS011;11544;42.020;23.094;2023-04-24T08:11:16;7.40;;;3.65;;
22754;SDS011;11544;42.020;23.094;2023-04-24T08:13:43;4.28;;;3.88;;
22754;SDS011;11544;42.020;23.094;2023-04-24T08:16:10;5.30;;;3.67;;
22754;SDS011;11544;42.020;23.094;2023-04-24T08:18:37;5.18;;;4.00;;
22754;SDS011;11544;42.020;23.094;2023-04-24T08:21:04;9.40;;;4.30;;
22754;SDS011;11544;42.020;23.094;2023-04-24T08:23:31;5.88;;;4.20;;
22754;SDS011;11544;42.020;23.094;2023-04-24T08:25:58;4.78;;;3.63;;
22754;SDS011;11544;42.020;23.094;2023-04-24T08:28:25;6.47;;;3.47;;
22754;SDS011;11544;42.020;23.094;2023-04-24T08:30:52;5.03;;;4.30;;
22754;SDS011;11544;42.020;23.094;2023-04-24T08:33:22;4.88;;;3.78;;
22754;SDS011;11544;42.020;23.094;2023-04-24T08:35:52;4.32;;;3.70;;
22754;SDS011;11544;42.020;23.094;2023-04-24T08:38:38;6.50;;;3.65;;
22754;SDS011;11544;42.020;23.094;2023-04-24T08:41:27;6.32;;;4.45;;
22754;SDS011;11544;42.020;23.094;2023-04-24T08:43:57;6.72;;;4.47;;
22754;SDS011;11544;42.020;23.094;2023-04-24T08:46:29;9.05;;;3.72;;
22754;SDS011;11544;42.020;23.094;2023-04-24T08:49:06;4.50;;;4.00;;
22754;SDS011;11544;42.020;23.094;2023-04-24T08:51:56;8.50;;;4.63;;
22754;SDS011;11544;42.020;23.094;2023-04-24T08:54:24;5.35;;;3.80;;
22754;SDS011;11544;42.020;23.094;2023-04-24T08:56:56;4.10;;;3.70;;
22754;SDS011;11544;42.020;23.094;2023-04-24T08:59:51;4.28;;;3.38;;
22754;SDS011;11544;42.020;23.094;2023-04-24T09:02:19;4.35;;;3.60;;
22754;SDS011;11544;42.020;23.094;2023-04-24T09:04:50;5.38;;;3.92;;
22754;SDS011;11544;42.020;23.094;2023-04-24T09:07:22;14.30;;;7.50;;
22754;SDS011;11544;42.020;23.094;2023-04-24T09:09:54;7.00;;;4.07;;
22754;SDS011;11544;42.020;23.094;2023-04-24T09:12:25;4.05;;;3.65;;
22754;SDS011;11544;42.020;23.094;2023-04-24T09:14:52;6.40;;;3.50;;
22754;SDS011;11544;42.020;23.094;2023-04-24T09:17:21;4.18;;;3.63;;
22754;SDS011;11544;42.020;23.094;2023-04-24T09:19:49;4.45;;;3.80;;
22754;SDS011;11544;42.020;23.094;2023-04-24T09:22:16;4.20;;;3.30;;
22754;SDS011;11544;42.020;23.094;2023-04-24T09:24:44;5.80;;;3.15;;
22754;SDS011;11544;42.020;23.094;2023-04-24T09:27:12;7.03;;;4.07;;
22754;SDS011;11544;42.020;23.094;2023-04-24T09:29:42;4.05;;;3.47;;
22754;SDS011;11544;42.020;23.094;2023-04-24T09:32:23;4.97;;;3.85;;
22754;SDS011;11544;42.020;23.094;2023-04-24T09:35:08;6.72;;;3.75;;
22754;SDS011;11544;42.020;23.094;2023-04-24T09:37:38;5.65;;;3.83;;
22754;SDS011;11544;42.020;23.094;2023-04-24T09:40:11;4.03;;;3.53;;
22754;SDS011;11544;42.020;23.094;2023-04-24T09:42:46;3.80;;;3.40;;
22754;SDS011;11544;42.020;23.094;2023-04-24T09:45:28;7.18;;;4.32;;
22754;SDS011;11544;42.020;23.094;2023-04-24T09:48:02;4.85;;;3.53;;
22754;SDS011;11544;42.020;23.094;2023-04-24T09:50:31;4.20;;;3.70;;
22754;SDS011;11544;42.020;23.094;2023-04-24T09:53:04;5.38;;;3.42;;
22754;SDS011;11544;42.020;23.094;2023-04-24T09:55:39;4.63;;;3.80;;
22754;SDS011;11544;42.020;23.094;2023-04-24T09:58:11;4.85;;;3.28;;
22754;SDS011;11544;42.020;23.094;2023-04-24T10:00:38;4.13;;;3.50;;
22754;SDS011;11544;42.020;23.094;2023-04-24T10:03:06;7.45;;;4.03;;
22754;SDS011;11544;42.020;23.094;2023-04-24T10:05:33;5.18;;;3.70;;
22754;SDS011;11544;42.020;23.094;2023-04-24T10:08:06;5.03;;;3.72;;
22754;SDS011;11544;42.020;23.094;2023-04-24T10:10:44;5.80;;;3.55;;
22754;SDS011;11544;42.020;23.094;2023-04-24T10:13:13;4.47;;;3.60;;
22754;SDS011;11544;42.020;23.094;2023-04-24T10:15:42;6.28;;;3.25;;
22754;SDS011;11544;42.020;23.094;2023-04-24T10:18:09;5.45;;;4.03;;
22754;SDS011;11544;42.020;23.094;2023-04-24T10:20:38;3.00;;;2.70;;
22754;SDS011;11544;42.020;23.094;2023-04-24T10:23:06;6.07;;;3.70;;
22754;SDS011;11544;42.020;23.094;2023-04-24T10:25:34;5.15;;;3.28;;
22754;SDS011;11544;42.020;23.094;2023-04-24T10:28:03;5.18;;;3.95;;
22754;SDS011;11544;42.020;23.094;2023-04-24T10:30:34;8.68;;;3.47;;
22754;SDS011;11544;42.020;23.094;2023-04-24T10:33:02;5.90;;;3.28;;
22754;SDS011;11544;42.020;23.094;2023-04-24T10:35:31;6.30;;;2.95;;
22754;SDS011;11544;42.020;23.094;2023-04-24T10:38:02;4.03;;;3.63;;
22754;SDS011;11544;42.020;23.094;2023-04-24T10:40:35;4.18;;;3.00;;
22754;SDS011;11544;42.020;23.094;2023-04-24T10:43:06;3.92;;;3.47;;
22754;SDS011;11544;42.020;23.094;2023-04-24T10:45:37;3.85;;;3.22;;
22754;SDS011;11544;42.020;23.094;2023-04-24T10:48:06;5.68;;;3.65;;
22754;SDS011;11544;42.020;23.094;2023-04-24T10:50:50;6.88;;;3.58;;
22754;SDS011;11544;42.020;23.094;2023-04-24T10:53:23;3.75;;;2.90;;
22754;SDS011;11544;42.020;23.094;2023-04-24T10:55:58;4.57;;;3.25;;
22754;SDS011;11544;42.020;23.094;2023-04-24T10:58:39;4.13;;;3.15;;
22754;SDS011;11544;42.020;23.094;2023-04-24T11:01:22;8.02;;;3.47;;
22754;SDS011;11544;42.020;23.094;2023-04-24T11:03:57;7.65;;;2.75;;
22754;SDS011;11544;42.020;23.094;2023-04-24T11:09:02;5.38;;;3.35;;
22754;SDS011;11544;42.020;23.094;2023-04-24T11:11:32;3.92;;;3.05;;
22754;SDS011;11544;42.020;23.094;2023-04-24T11:14:01;4.60;;;3.20;;
22754;SDS011;11544;42.020;23.094;2023-04-24T11:21:42;4.50;;;3.25;;
22754;SDS011;11544;42.020;23.094;2023-04-24T11:24:28;4.35;;;3.65;;
22754;SDS011;11544;42.020;23.094;2023-04-24T11:26:58;4.45;;;2.92;;
22754;SDS011;11544;42.020;23.094;2023-04-24T11:29:38;3.65;;;3.10;;
22754;SDS011;11544;42.020;23.094;2023-04-24T11:32:22;7.85;;;3.38;;
22754;SDS011;11544;42.020;23.094;2023-04-24T11:35:20;4.25;;;3.15;;
22754;SDS011;11544;42.020;23.094;2023-04-24T11:37:52;8.48;;;3.03;;
22754;SDS011;11544;42.020;23.094;2023-04-24T11:40:23;13.45;;;3.55;;
22754;SDS011;11544;42.020;23.094;2023-04-24T11:42:50;6.40;;;3.55;;
22754;SDS011;11544;42.020;23.094;2023-04-24T11:45:22;3.72;;;3.13;;
22754;SDS011;11544;42.020;23.094;2023-04-24T11:47:56;3.30;;;2.78;;
22754;SDS011;11544;42.020;23.094;2023-04-24T11:50:25;3.67;;;3.38;;
22754;SDS011;11544;42.020;23.094;2023-04-24T11:52:54;4.00;;;3.03;;
22754;SDS011;11544;42.020;23.094;2023-04-24T11:55:23;3.13;;;2.83;;
22754;SDS011;11544;42.020;23.094;2023-04-24T11:57:56;3.55;;;3.20;;
22754;SDS011;11544;42.020;23.094;2023-04-24T12:00:30;4.47;;;3.20;;
22754;SDS011;11544;42.020;23.094;2023-04-24T12:03:04;3.67;;;3.30;;
22754;SDS011;11544;42.020;23.094;2023-04-24T12:05:32;4.32;;;3.30;;
22754;SDS011;11544;42.020;23.094;2023-04-24T12:08:01;7.47;;;2.92;;
22754;SDS011;11544;42.020;23.094;2023-04-24T12:10:29;4.80;;;3.30;;
22754;SDS011;11544;42.020;23.094;2023-04-24T12:12:58;3.90;;;3.40;;
22754;SDS011;11544;42.020;23.094;2023-04-24T12:15:26;4.35;;;3.00;;
22754;SDS011;11544;42.020;23.094;2023-04-24T12:17:54;5.72;;;3.35;;
22754;SDS011;11544;42.020;23.094;2023-04-24T12:20:26;4.53;;;3.00;;
22754;SDS011;11544;42.020;23.094;2023-04-24T12:23:00;3.35;;;3.03;;
22754;SDS011;11544;42.020;23.094;2023-04-24T12:25:31;4.13;;;3.58;;
22754;SDS011;11544;42.020;23.094;2023-04-24T12:30:39;3.53;;;3.15;;
22754;SDS011;11544;42.020;23.094;2023-04-24T12:33:11;3.20;;;2.85;;
22754;SDS011;11544;42.020;23.094;2023-04-24T12:35:39;4.82;;;3.80;;
22754;SDS011;11544;42.020;23.094;2023-04-24T12:38:11;6.55;;;3.58;;
22754;SDS011;11544;42.020;23.094;2023-04-24T12:40:41;4.63;;;3.13;;
22754;SDS011;11544;42.020;23.094;2023-04-24T12:43:15;8.65;;;2.85;;
22754;SDS011;11544;42.020;23.094;2023-04-24T12:45:47;4.22;;;2.60;;
22754;SDS011;11544;42.020;23.094;2023-04-24T12:48:14;3.40;;;2.78;;
22754;SDS011;11544;42.020;23.094;2023-04-24T12:50:42;3.38;;;2.55;;
22754;SDS011;11544;42.020;23.094;2023-04-24T12:53:11;3.50;;;3.13;;
22754;SDS011;11544;42.020;23.094;2023-04-24T12:55:39;3.30;;;3.00;;
22754;SDS011;11544;42.020;23.094;2023-04-24T12:58:07;5.57;;;3.50;;
22754;SDS011;11544;42.020;23.094;2023-04-24T13:00:34;4.10;;;2.88;;
22754;SDS011;11544;42.020;23.094;2023-04-24T13:03:02;5.22;;;2.97;;
22754;SDS011;11544;42.020;23.094;2023-04-24T13:05:30;4.57;;;3.22;;
22754;SDS011;11544;42.020;23.094;2023-04-24T13:07:57;5.90;;;3.42;;
22754;SDS011;11544;42.020;23.094;2023-04-24T13:10:27;5.10;;;3.60;;
22754;SDS011;11544;42.020;23.094;2023-04-24T13:12:54;5.22;;;3.70;;
22754;SDS011;11544;42.020;23.094;2023-04-24T13:15:21;3.30;;;3.00;;
22754;SDS011;11544;42.020;23.094;2023-04-24T13:17:48;5.60;;;3.50;;
22754;SDS011;11544;42.020;23.094;2023-04-24T13:20:15;5.32;;;3.88;;
22754;SDS011;11544;42.020;23.094;2023-04-24T13:22:45;4.30;;;3.45;;
22754;SDS011;11544;42.020;23.094;2023-04-24T13:25:12;3.53;;;2.90;;
22754;SDS011;11544;42.020;23.094;2023-04-24T13:27:43;4.53;;;3.00;;
22754;SDS011;11544;42.020;23.094;2023-04-24T13:30:10;4.30;;;3.40;;
22754;SDS011;11544;42.020;23.094;2023-04-24T13:32:37;6.80;;;3.22;;
22754;SDS011;11544;42.020;23.094;2023-04-24T13:35:05;4.03;;;3.63;;
22754;SDS011;11544;42.020;23.094;2023-04-24T13:37:32;6.50;;;3.42;;
22754;SDS011;11544;42.020;23.094;2023-04-24T13:39:59;4.45;;;3.13;;
22754;SDS011;11544;42.020;23.094;2023-04-24T13:42:25;4.55;;;3.60;;
22754;SDS011;11544;42.020;23.094;2023-04-24T13:44:53;4.90;;;3.67;;
22754;SDS011;11544;42.020;23.094;2023-04-24T13:47:36;7.60;;;3.75;;
22754;SDS011;11544;42.020;23.094;2023-04-24T13:50:03;7.40;;;3.08;;
22754;SDS011;11544;42.020;23.094;2023-04-24T13:52:30;8.70;;;3.55;;
22754;SDS011;11544;42.020;23.094;2023-04-24T13:54:57;6.07;;;3.15;;
22754;SDS011;11544;42.020;23.094;2023-04-24T13:57:24;4.95;;;3.17;;
22754;SDS011;11544;42.020;23.094;2023-04-24T13:59:51;5.20;;;3.33;;
22754;SDS011;11544;42.020;23.094;2023-04-24T14:02:18;4.03;;;3.60;;
22754;SDS011;11544;42.020;23.094;2023-04-24T14:04:45;6.28;;;3.35;;
22754;SDS011;11544;42.020;23.094;2023-04-24T14:07:14;5.03;;;3.13;;
22754;SDS011;11544;42.020;23.094;2023-04-24T14:09:44;5.05;;;3.50;;
22754;SDS011;11544;42.020;23.094;2023-04-24T14:12:14;5.80;;;3.60;;
22754;SDS011;11544;42.020;23.094;2023-04-24T14:14:43;8.70;;;3.38;;
22754;SDS011;11544;42.020;23.094;2023-04-24T14:17:13;6.00;;;3.38;;
22754;SDS011;11544;42.020;23.094;2023-04-24T14:19:43;3.55;;;3.17;;
22754;SDS011;11544;42.020;23.094;2023-04-24T14:22:12;3.97;;;3.53;;
22754;SDS011;11544;42.020;23.094;2023-04-24T14:24:39;3.88;;;3.20;;
22754;SDS011;11544;42.020;23.094;2023-04-24T14:27:07;4.72;;;3.75;;
22754;SDS011;11544;42.020;23.094;2023-04-24T14:29:38;3.60;;;3.30;;
22754;SDS011;11544;42.020;23.094;2023-04-24T14:32:16;5.45;;;3.63;;
22754;SDS011;11544;42.020;23.094;2023-04-24T14:34:43;4.40;;;3.60;;
22754;SDS011;11544;42.020;23.094;2023-04-24T14:37:13;6.28;;;3.55;;
22754;SDS011;11544;42.020;23.094;2023-04-24T14:39:41;6.32;;;4.07;;
22754;SDS011;11544;42.020;23.094;2023-04-24T14:42:13;6.57;;;3.80;;
22754;SDS011;11544;42.020;23.094;2023-04-24T14:44:40;3.85;;;3.50;;
22754;SDS011;11544;42.020;23.094;2023-04-24T14:47:07;7.07;;;3.42;;
22754;SDS011;11544;42.020;23.094;2023-04-24T14:49:34;4.05;;;3.42;;
22754;SDS011;11544;42.020;23.094;2023-04-24T14:52:01;7.82;;;4.25;;
22754;SDS011;11544;42.020;23.094;2023-04-24T14:54:29;4.30;;;3.33;;